Time;durP1;ratioP1;P1;durP2;ratioP2;P2;SDS_P1;SDS_P2;PMS_P1;PMS_P2;Temp;Humidity;BMP_temperature;BMP_pressure;BME280_temperature;BME280_humidity;BME280_pressure;Samples;Min_cycle;Max_cycle;Signal;HPM_P1;HPM_P2
2022/06/18 00:00:56;;;;;;;3.60;2.63;;;22.40;99.90;;;;;;5055290;28;39297;-78
2022/06/18 00:03:24;;;;;;;5.18;2.42;;;22.40;99.90;;;;;;5050456;27;39406;-78
2022/06/18 00:05:54;;;;;;;9.32;3.05;;;22.30;99.90;;;;;;5077113;27;38719;-77
2022/06/18 00:08:25;;;;;;;6.40;3.03;;;22.30;99.90;;;;;;5052274;27;38203;-77
2022/06/18 00:13:39;;;;;;;6.32;2.60;;;22.20;99.90;;;;;;5074055;28;38520;-77
2022/06/18 00:13:48;;;;;;;6.80;2.63;;;22.20;99.90;;;;;;5057838;27;48401;-77
2022/06/18 00:16:18;;;;;;;6.10;2.60;;;22.20;99.90;;;;;;5049236;27;38878;-77
2022/06/18 00:18:44;;;;;;;7.15;2.97;;;22.10;99.90;;;;;;5067334;27;36227;-78
2022/06/18 00:21:23;;;;;;;4.70;2.70;;;22.10;99.90;;;;;;5049127;27;38707;-77
2022/06/18 00:23:49;;;;;;;5.97;2.65;;;22.20;99.90;;;;;;5062879;27;39155;-78
2022/06/18 00:26:16;;;;;;;7.30;2.88;;;22.10;99.90;;;;;;5062165;28;38660;-77
2022/06/18 00:28:42;;;;;;;5.80;2.63;;;22.10;99.90;;;;;;5038232;28;36166;-78
2022/06/18 00:31:08;;;;;;;4.55;2.58;;;22.10;99.90;;;;;;5050286;27;38833;-78
2022/06/18 00:33:36;;;;;;;5.03;2.70;;;22.10;99.90;;;;;;5062111;27;39252;-78
2022/06/18 00:36:04;;;;;;;4.70;2.80;;;22.10;99.90;;;;;;5049086;27;37408;-78
2022/06/18 00:38:36;;;;;;;6.50;3.08;;;22.00;99.90;;;;;;5062578;28;37251;-77
2022/06/18 00:41:04;;;;;;;;;;;22.00;99.90;;;;;;5062952;27;40268;-77
2022/06/18 00:43:43;;;;;;;7.70;2.70;;;22.00;99.90;;;;;;5069209;27;38162;-77
2022/06/18 00:46:20;;;;;;;6.63;3.45;;;22.00;99.90;;;;;;5069264;27;37269;-77
2022/06/18 00:49:06;;;;;;;6.75;3.08;;;22.00;99.90;;;;;;5061499;27;36393;-78
2022/06/18 00:52:02;;;;;;;5.55;2.63;;;22.00;99.90;;;;;;5053088;28;48510;-77
2022/06/18 00:54:59;;;;;;;5.47;3.15;;;21.90;99.90;;;;;;5028371;28;47212;-78
2022/06/18 00:57:31;;;;;;;5.68;2.63;;;21.90;99.90;;;;;;5055485;27;37813;-78
2022/06/18 01:00:07;;;;;;;7.13;3.22;;;21.90;99.90;;;;;;5036988;28;37251;-78
2022/06/18 01:02:40;;;;;;;5.97;3.17;;;21.90;99.90;;;;;;5069519;28;47140;-77
2022/06/18 01:05:20;;;;;;;5.97;3.15;;;21.90;99.90;;;;;;5054232;27;38496;-77
2022/06/18 01:07:50;;;;;;;12.65;3.33;;;21.90;99.90;;;;;;5048729;28;37921;-78
2022/06/18 01:10:23;;;;;;;14.32;3.70;;;21.90;99.90;;;;;;5093333;27;36096;-78
2022/06/18 01:12:50;;;;;;;10.05;3.83;;;21.80;99.90;;;;;;5054701;27;39856;-78
2022/06/18 01:15:20;;;;;;;9.30;3.80;;;21.80;99.90;;;;;;5059988;27;38405;-77
2022/06/18 01:17:49;;;;;;;7.45;3.00;;;21.80;99.90;;;;;;5057727;27;37649;-77
2022/06/18 01:20:16;;;;;;;9.80;3.90;;;21.80;99.90;;;;;;5069978;27;37223;-77
2022/06/18 01:22:42;;;;;;;8.68;3.40;;;21.80;99.90;;;;;;5060734;27;39780;-77
2022/06/18 01:25:09;;;;;;;9.73;3.55;;;21.70;99.90;;;;;;5065335;27;37180;-77
2022/06/18 01:27:36;;;;;;;9.45;3.50;;;21.70;99.90;;;;;;5052561;27;37912;-77
2022/06/18 01:30:14;;;;;;;9.82;3.90;;;21.70;99.90;;;;;;5034847;28;36674;-77
2022/06/18 01:32:42;;;;;;;6.63;3.20;;;21.60;99.90;;;;;;5060262;28;37560;-78
2022/06/18 01:35:09;;;;;;;8.20;3.15;;;21.60;99.90;;;;;;5056221;27;39291;-77
2022/06/18 01:37:38;;;;;;;10.38;3.65;;;21.60;99.90;;;;;;5049141;28;36756;-77
2022/06/18 01:40:09;;;;;;;7.78;3.47;;;21.60;99.90;;;;;;5087946;27;36524;-78
2022/06/18 01:42:44;;;;;;;8.57;3.08;;;21.50;99.90;;;;;;5058023;28;38141;-78
2022/06/18 01:45:16;;;;;;;8.95;3.63;;;21.50;99.90;;;;;;5051970;27;38412;-77
2022/06/18 01:47:56;;;;;;;8.68;3.63;;;21.50;99.90;;;;;;5078164;27;38661;-78
2022/06/18 01:50:32;;;;;;;6.95;3.33;;;21.40;99.90;;;;;;5055286;28;36574;-77
2022/06/18 01:53:14;;;;;;;8.02;3.50;;;21.40;99.90;;;;;;5049830;28;39868;-77
2022/06/18 01:55:47;;;;;;;7.03;3.25;;;21.30;99.90;;;;;;5062684;28;47245;-77
2022/06/18 01:58:19;;;;;;;8.45;3.88;;;21.30;99.90;;;;;;5065238;27;38530;-77
2022/06/18 02:00:51;;;;;;;6.80;3.47;;;21.30;99.90;;;;;;5055547;28;36313;-77
2022/06/18 02:03:18;;;;;;;10.40;3.90;;;21.30;99.90;;;;;;5061004;27;38130;-77
2022/06/18 02:05:44;;;;;;;9.93;3.78;;;21.20;99.90;;;;;;5065343;27;37836;-77
2022/06/18 02:08:15;;;;;;;6.18;3.55;;;21.20;99.90;;;;;;5060155;27;39126;-77
2022/06/18 02:10:53;;;;;;;13.13;4.40;;;21.10;99.90;;;;;;5056793;28;38651;-78
2022/06/18 02:13:23;;;;;;;12.57;4.10;;;21.10;99.90;;;;;;5052719;27;39731;-77
2022/06/18 02:15:53;;;;;;;11.20;3.50;;;21.10;99.90;;;;;;5052721;28;38853;-78
2022/06/18 02:18:19;;;;;;;5.13;3.15;;;21.10;99.90;;;;;;5056872;27;37022;-77
2022/06/18 02:20:50;;;;;;;15.93;3.80;;;21.10;99.90;;;;;;5060591;28;37821;-77
2022/06/18 02:23:18;;;;;;;9.40;4.15;;;21.10;99.90;;;;;;5056649;27;40528;-77
2022/06/18 02:25:45;;;;;;;7.43;3.97;;;21.10;99.90;;;;;;5038556;28;37662;-78
2022/06/18 02:28:24;;;;;;;9.68;4.07;;;21.00;99.90;;;;;;5039368;28;37991;-78
2022/06/18 02:30:55;;;;;;;9.90;4.07;;;21.00;99.90;;;;;;5057237;28;38542;-77
2022/06/18 02:33:28;;;;;;;11.30;4.50;;;20.90;99.90;;;;;;5055100;27;40921;-77
2022/06/18 02:35:55;;;;;;;12.40;4.45;;;20.90;99.90;;;;;;5060303;28;37286;-77
2022/06/18 02:38:22;;;;;;;6.93;4.03;;;20.90;99.90;;;;;;5074174;27;37663;-77
2022/06/18 02:40:49;;;;;;;9.52;5.03;;;20.80;99.90;;;;;;5053119;27;38590;-78
2022/06/18 02:43:18;;;;;;;10.05;4.43;;;20.90;99.90;;;;;;5035627;27;37714;-77
2022/06/18 02:45:49;;;;;;;11.13;4.38;;;20.80;99.90;;;;;;5054004;27;39326;-77
2022/06/18 02:48:15;;;;;;;9.68;4.45;;;20.70;99.90;;;;;;5045176;28;39698;-77
2022/06/18 02:50:43;;;;;;;13.68;4.57;;;20.70;99.90;;;;;;5061079;28;36887;-77
2022/06/18 02:53:12;;;;;;;11.32;4.63;;;20.80;99.90;;;;;;5044751;28;40484;-77
2022/06/18 02:55:42;;;;;;;9.48;3.95;;;20.80;99.90;;;;;;5044108;28;39134;-77
2022/06/18 02:58:18;;;;;;;12.38;4.32;;;20.70;99.90;;;;;;5064796;27;38857;-77
2022/06/18 03:01:10;;;;;;;15.38;5.05;;;20.70;99.90;;;;;;5059316;28;38445;-77
2022/06/18 03:03:42;;;;;;;8.88;4.25;;;20.70;99.90;;;;;;5083012;27;46187;-77
2022/06/18 03:06:09;;;;;;;9.27;4.30;;;20.70;99.90;;;;;;5046276;27;38423;-77
2022/06/18 03:08:37;;;;;;;12.48;4.95;;;20.60;99.90;;;;;;5036338;28;38622;-77
2022/06/18 03:13:49;;;;;;;12.55;5.22;;;20.50;99.90;;;;;;5035493;28;39498;-77
2022/06/18 03:16:18;;;;;;;9.38;4.22;;;20.50;99.90;;;;;;5031366;27;39074;-77
2022/06/18 03:18:45;;;;;;;16.38;4.80;;;20.40;99.90;;;;;;5030374;28;36495;-78
2022/06/18 03:21:30;;;;;;;10.75;4.57;;;20.40;99.90;;;;;;5034013;28;37001;-77
2022/06/18 03:23:56;;;;;;;10.82;4.75;;;20.40;99.90;;;;;;5033145;28;36839;-77
2022/06/18 03:26:22;;;;;;;13.60;4.75;;;20.40;99.90;;;;;;5036967;28;39808;-77
2022/06/18 03:28:48;;;;;;;10.90;4.68;;;20.40;99.90;;;;;;5034004;28;38711;-77
2022/06/18 03:31:15;;;;;;;15.20;4.40;;;20.30;99.90;;;;;;5035288;28;37760;-77
2022/06/18 03:33:41;;;;;;;11.55;5.18;;;20.30;99.90;;;;;;5050344;28;39733;-77
2022/06/18 03:36:10;;;;;;;11.63;5.05;;;20.30;99.90;;;;;;5033023;28;38634;-77
2022/06/18 03:38:37;;;;;;;15.80;5.03;;;20.20;99.90;;;;;;5034734;28;37651;-77
2022/06/18 03:41:03;;;;;;;10.15;5.05;;;20.20;99.90;;;;;;5043498;28;38194;-77
2022/06/18 03:43:30;;;;;;;13.00;5.00;;;20.10;99.90;;;;;;5039551;28;38145;-77
2022/06/18 03:46:01;;;;;;;12.85;4.93;;;20.10;99.90;;;;;;5040327;28;39563;-77
2022/06/18 03:48:46;;;;;;;13.50;5.35;;;20.00;99.90;;;;;;5055101;28;47707;-77
2022/06/18 03:51:13;;;;;;;12.75;5.00;;;20.00;99.90;;;;;;5051905;28;37965;-76
2022/06/18 03:53:40;;;;;;;9.90;4.55;;;20.00;99.90;;;;;;5057561;28;38783;-75
2022/06/18 03:56:10;;;;;;;8.98;4.72;;;20.00;99.90;;;;;;5068960;28;37438;-75
2022/06/18 03:58:36;;;;;;;10.80;4.65;;;19.90;99.90;;;;;;5062024;28;37980;-75
2022/06/18 04:01:02;;;;;;;11.90;5.13;;;20.00;99.90;;;;;;5063875;27;38435;-79
2022/06/18 04:03:28;;;;;;;15.05;5.43;;;20.00;99.90;;;;;;5060003;27;39722;-75
2022/06/18 04:05:55;;;;;;;12.40;5.20;;;19.90;99.90;;;;;;5078954;28;35022;-75
2022/06/18 04:08:21;;;;;;;11.15;4.90;;;19.90;99.90;;;;;;5076694;27;38173;-75
2022/06/18 04:10:48;;;;;;;14.40;5.35;;;19.90;99.90;;;;;;5092635;27;38832;-75
2022/06/18 04:13:14;;;;;;;12.35;4.82;;;19.90;99.90;;;;;;5057327;28;40173;-76
2022/06/18 04:15:41;;;;;;;13.75;5.03;;;19.90;99.90;;;;;;5052329;28;37548;-76
2022/06/18 04:18:09;;;;;;;18.65;5.47;;;19.90;99.90;;;;;;5055878;28;40642;-75
2022/06/18 04:20:37;;;;;;;19.27;5.50;;;19.80;99.90;;;;;;5053443;28;37545;-76
2022/06/18 04:23:04;;;;;;;15.50;5.93;;;19.90;99.90;;;;;;5072427;27;40212;-76
2022/06/18 04:25:31;;;;;;;12.95;4.82;;;19.90;99.90;;;;;;5041252;28;40358;-76
2022/06/18 04:27:57;;;;;;;13.00;5.68;;;19.90;99.90;;;;;;5041401;28;38516;-76
2022/06/18 04:30:26;;;;;;;16.42;5.57;;;19.90;99.90;;;;;;5063112;28;38267;-76
2022/06/18 04:32:53;;;;;;;10.13;4.93;;;19.90;99.90;;;;;;5055486;28;39552;-76
2022/06/18 04:35:20;;;;;;;10.02;4.50;;;19.90;99.90;;;;;;5043920;28;39019;-76
2022/06/18 04:37:48;;;;;;;10.77;5.35;;;19.90;99.90;;;;;;5038054;28;40099;-76
2022/06/18 04:40:22;;;;;;;11.77;6.03;;;19.90;99.90;;;;;;5040439;28;36130;-76
2022/06/18 04:42:48;;;;;;;13.65;5.72;;;19.90;99.90;;;;;;5048575;28;39593;-76
2022/06/18 04:45:14;;;;;;;15.18;5.13;;;19.80;99.90;;;;;;5038584;28;37651;-77
2022/06/18 04:47:40;;;;;;;10.40;5.00;;;19.90;99.90;;;;;;5040195;28;37900;-75
2022/06/18 04:50:14;;;;;;;12.88;5.18;;;20.00;99.90;;;;;;5057867;27;37397;-76
2022/06/18 04:52:40;;;;;;;12.27;4.82;;;20.00;99.90;;;;;;5042843;28;39566;-76
2022/06/18 04:55:07;;;;;;;12.10;5.43;;;20.20;99.90;;;;;;5037853;28;36628;-76
2022/06/18 04:57:33;;;;;;;19.75;6.28;;;20.10;99.90;;;;;;5046065;28;38262;-76
2022/06/18 04:59:59;;;;;;;13.48;5.35;;;20.10;99.90;;;;;;5041139;28;38322;-76
2022/06/18 05:02:29;;;;;;;13.68;5.90;;;20.10;99.90;;;;;;5040221;28;37983;-76
2022/06/18 05:04:55;;;;;;;11.18;5.35;;;20.10;99.90;;;;;;5032624;28;37564;-76
2022/06/18 05:07:21;;;;;;;12.70;5.32;;;20.30;99.90;;;;;;5042533;28;37987;-76
2022/06/18 05:09:48;;;;;;;9.85;4.90;;;20.40;99.90;;;;;;5048310;28;37064;-76
2022/06/18 05:12:15;;;;;;;14.75;6.07;;;20.40;99.90;;;;;;5044368;28;38904;-76
2022/06/18 05:14:42;;;;;;;12.50;5.53;;;20.50;99.90;;;;;;5040216;28;37715;-76
2022/06/18 05:17:18;;;;;;;13.48;5.28;;;20.70;99.90;;;;;;5038646;28;37988;-76
2022/06/18 05:19:44;;;;;;;12.63;5.68;;;20.80;99.90;;;;;;5039774;28;36858;-76
2022/06/18 05:22:10;;;;;;;12.88;4.97;;;20.80;99.90;;;;;;5036092;28;38538;-76
2022/06/18 05:24:36;;;;;;;11.95;5.38;;;20.80;99.90;;;;;;5042902;28;38831;-76
2022/06/18 05:27:03;;;;;;;16.90;6.32;;;20.90;99.90;;;;;;5037612;27;38187;-77
2022/06/18 05:29:30;;;;;;;13.25;5.90;;;21.00;99.90;;;;;;5037370;28;37363;-76
2022/06/18 05:31:56;;;;;;;18.45;6.35;;;20.90;99.90;;;;;;5037375;28;40731;-77
2022/06/18 05:34:22;;;;;;;11.63;6.45;;;20.80;99.90;;;;;;5035497;28;36816;-78
2022/06/18 05:36:49;;;;;;;11.15;4.68;;;20.80;99.90;;;;;;5031875;28;38194;-78
2022/06/18 05:39:18;;;;;;;15.95;6.00;;;21.00;99.90;;;;;;5036797;28;39701;-78
2022/06/18 05:41:45;;;;;;;13.05;5.30;;;21.20;99.90;;;;;;5035110;28;39227;-78
2022/06/18 05:44:11;;;;;;;16.17;5.65;;;21.30;99.90;;;;;;5037253;28;38751;-78
2022/06/18 05:46:37;;;;;;;16.45;5.97;;;21.40;99.90;;;;;;5042008;28;39124;-78
2022/06/18 05:49:04;;;;;;;13.00;5.57;;;21.30;99.90;;;;;;5051986;28;37639;-78
2022/06/18 05:51:30;;;;;;;20.85;6.80;;;21.30;99.90;;;;;;5056975;28;40549;-78
2022/06/18 05:53:56;;;;;;;15.80;5.28;;;21.40;99.90;;;;;;5060312;28;39065;-77
2022/06/18 05:56:22;;;;;;;14.18;6.03;;;21.40;99.90;;;;;;5059539;27;35677;-78
2022/06/18 05:58:48;;;;;;;15.25;5.95;;;21.50;99.90;;;;;;5055317;28;36537;-77
2022/06/18 06:01:14;;;;;;;15.88;6.60;;;21.50;99.90;;;;;;5056665;27;39517;-79
2022/06/18 06:03:41;;;;;;;17.30;6.35;;;21.60;99.90;;;;;;5031731;28;38501;-77
2022/06/18 06:06:07;;;;;;;16.00;5.75;;;21.60;99.90;;;;;;5035394;28;39540;-77
2022/06/18 06:08:33;;;;;;;16.15;5.50;;;21.80;99.90;;;;;;5044238;28;38195;-77
2022/06/18 06:13:44;;;;;;;10.07;5.05;;;21.90;99.90;;;;;;5058911;27;49350;-77
2022/06/18 06:16:11;;;;;;;14.73;5.63;;;21.80;99.90;;;;;;5059263;27;37728;-78
2022/06/18 06:18:37;;;;;;;12.50;5.40;;;22.10;99.90;;;;;;5047092;27;39325;-77
2022/06/18 06:21:03;;;;;;;16.65;7.10;;;22.30;99.90;;;;;;5039104;28;39849;-78
2022/06/18 06:23:30;;;;;;;12.98;5.57;;;22.50;99.90;;;;;;5053221;28;37683;-78
2022/06/18 06:25:57;;;;;;;15.10;5.55;;;22.70;99.90;;;;;;5058447;28;38553;-76
2022/06/18 06:28:26;;;;;;;14.32;5.43;;;22.70;99.90;;;;;;5055217;27;37679;-76
2022/06/18 06:30:53;;;;;;;17.20;6.30;;;22.90;99.90;;;;;;5056567;27;38656;-76
2022/06/18 06:33:20;;;;;;;12.63;4.85;;;23.30;99.90;;;;;;5057012;27;38418;-75
2022/06/18 06:35:46;;;;;;;15.15;5.32;;;23.60;99.90;;;;;;5052336;28;39624;-77
2022/06/18 06:38:14;;;;;;;14.25;6.00;;;23.80;99.90;;;;;;5089983;27;37409;-83
2022/06/18 06:40:43;;;;;;;19.20;7.07;;;24.00;99.90;;;;;;5031880;28;39972;-77
2022/06/18 06:43:12;;;;;;;13.13;6.75;;;23.80;99.90;;;;;;5040227;27;38637;-77
2022/06/18 06:45:38;;;;;;;12.63;5.88;;;23.80;99.90;;;;;;5036196;28;38525;-78
2022/06/18 06:48:05;;;;;;;13.80;5.95;;;23.80;99.90;;;;;;5049787;28;37128;-78
2022/06/18 06:50:31;;;;;;;15.20;6.68;;;24.00;99.90;;;;;;5034444;28;38076;-77
2022/06/18 06:52:58;;;;;;;14.93;6.65;;;24.30;99.90;;;;;;5034369;28;39549;-79
2022/06/18 06:58:16;;;;;;;18.83;7.97;;;24.50;99.90;;;;;;5038737;27;38761;-78
2022/06/18 07:00:45;;;;;;;18.60;6.93;;;24.60;99.90;;;;;;5036014;28;37819;-77
2022/06/18 07:03:13;;;;;;;20.65;7.25;;;24.80;99.90;;;;;;5036560;28;39069;-77
2022/06/18 07:05:39;;;;;;;18.55;7.05;;;25.10;99.90;;;;;;5036230;28;38208;-77
2022/06/18 07:08:06;;;;;;;17.70;7.18;;;25.30;99.90;;;;;;5039071;28;38278;-77
2022/06/18 07:10:32;;;;;;;13.45;6.28;;;25.30;99.90;;;;;;5043417;28;38936;-77
2022/06/18 07:12:59;;;;;;;14.93;6.65;;;25.30;99.90;;;;;;5033871;28;39444;-77
2022/06/18 07:15:25;;;;;;;13.52;5.70;;;25.50;99.90;;;;;;5036025;28;38642;-77
2022/06/18 07:17:51;;;;;;;15.68;5.43;;;25.50;99.90;;;;;;5038000;28;37926;-77
2022/06/18 07:20:19;;;;;;;18.67;4.68;;;25.60;99.90;;;;;;5031739;28;38074;-77
2022/06/18 07:22:46;;;;;;;13.18;5.32;;;25.60;99.90;;;;;;5036364;28;37518;-76
2022/06/18 07:25:13;;;;;;;10.65;4.85;;;25.70;99.90;;;;;;5070765;28;38800;-77
2022/06/18 07:27:40;;;;;;;17.30;4.85;;;25.70;99.90;;;;;;5037181;28;37706;-76
2022/06/18 07:30:08;;;;;;;12.07;4.40;;;25.80;99.90;;;;;;5044439;28;39029;-76
2022/06/18 07:32:44;;;;;;;13.05;4.38;;;25.80;99.90;;;;;;5059548;28;38781;-77
2022/06/18 07:35:24;;;;;;;12.65;4.22;;;25.80;99.90;;;;;;5052705;27;38758;-76
2022/06/18 07:37:50;;;;;;;11.25;3.92;;;25.80;99.90;;;;;;5049796;28;36255;-77
2022/06/18 07:40:17;;;;;;;10.77;4.03;;;25.90;99.90;;;;;;5055688;27;38676;-79
2022/06/18 07:42:47;;;;;;;8.95;3.80;;;26.00;99.90;;;;;;5076037;27;37137;-75
2022/06/18 07:45:18;;;;;;;14.52;4.28;;;26.20;99.90;;;;;;5069478;27;37697;-75
2022/06/18 07:47:45;;;;;;;12.02;3.83;;;26.30;99.90;;;;;;5054415;27;36363;-78
2022/06/18 07:50:13;;;;;;;10.55;3.70;;;26.30;99.90;;;;;;5053028;27;39677;-77
2022/06/18 07:52:40;;;;;;;9.57;3.70;;;26.50;99.90;;;;;;5058033;27;38651;-76
2022/06/18 07:55:10;;;;;;;9.07;3.50;;;26.50;99.90;;;;;;5046851;28;39733;-79
2022/06/18 07:57:36;;;;;;;19.83;5.45;;;26.50;99.90;;;;;;5041505;28;37259;-78
2022/06/18 08:00:04;;;;;;;11.07;4.22;;;26.70;99.90;;;;;;5045061;27;38706;-78
2022/06/18 08:02:30;;;;;;;13.07;5.00;;;26.70;99.90;;;;;;5042311;28;37132;-76
2022/06/18 08:04:56;;;;;;;13.10;4.93;;;26.60;99.90;;;;;;5052067;28;38690;-81
2022/06/18 08:07:23;;;;;;;14.60;5.47;;;26.50;99.90;;;;;;5059210;27;37230;-82
2022/06/18 08:09:49;;;;;;;13.00;4.20;;;26.40;99.90;;;;;;5060623;28;39027;-78
2022/06/18 08:12:16;;;;;;;11.95;4.15;;;26.50;99.90;;;;;;5074199;27;37575;-76
2022/06/18 08:14:42;;;;;;;12.30;4.65;;;26.70;99.90;;;;;;5081928;27;37419;-76
2022/06/18 08:17:08;;;;;;;12.40;4.63;;;26.80;99.90;;;;;;5058782;27;37237;-79
2022/06/18 08:19:35;;;;;;;12.68;4.35;;;26.90;99.90;;;;;;5045730;28;39530;-77
2022/06/18 08:22:01;;;;;;;14.70;5.43;;;27.00;99.90;;;;;;5060750;28;40647;-77
2022/06/18 08:24:27;;;;;;;17.27;5.55;;;27.10;99.90;;;;;;5047564;28;47317;-77
2022/06/18 08:26:54;;;;;;;13.30;4.97;;;27.00;99.90;;;;;;5057082;28;37242;-78
2022/06/18 08:29:23;;;;;;;19.58;4.85;;;26.90;99.90;;;;;;5059928;27;37559;-77
2022/06/18 08:31:49;;;;;;;12.00;3.90;;;27.10;99.90;;;;;;5095089;27;38947;-80
2022/06/18 08:34:15;;;;;;;12.55;4.90;;;27.30;99.90;;;;;;5035617;28;38852;-80
2022/06/18 08:36:42;;;;;;;8.48;3.65;;;27.20;99.90;;;;;;5056799;28;37822;-79
2022/06/18 08:39:08;;;;;;;12.52;3.88;;;27.30;99.90;;;;;;5047144;27;39773;-80
2022/06/18 08:42:09;;;;;;;16.65;3.70;;;27.40;99.90;;;;;;5065871;27;38452;-80
2022/06/18 08:45:05;;;;;;;9.80;3.50;;;27.70;99.90;;;;;;5053542;28;47186;-80
2022/06/18 08:47:52;;;;;;;11.52;3.63;;;27.70;99.90;;;;;;5056734;28;47341;-79
2022/06/18 08:50:30;;;;;;;9.88;2.70;;;27.90;99.90;;;;;;5079072;27;39227;-80
2022/06/18 08:53:37;;;;;;;8.77;3.13;;;28.10;99.90;;;;;;5072464;27;38335;-77
2022/06/18 08:56:14;;;;;;;7.65;2.88;;;28.10;99.90;;;;;;5018130;28;47897;-78
2022/06/18 08:59:07;;;;;;;9.73;3.10;;;28.30;99.90;;;;;;5053526;28;37462;-78
2022/06/18 09:01:51;;;;;;;12.38;3.30;;;28.30;99.90;;;;;;5089355;28;47190;-78
2022/06/18 09:04:31;;;;;;;6.03;2.40;;;28.30;99.90;;;;;;5042909;28;39433;-78
2022/06/18 09:06:57;;;;;;;6.00;2.45;;;28.30;99.90;;;;;;5061535;27;38048;-78
2022/06/18 09:09:29;;;;;;;9.68;2.70;;;28.20;99.90;;;;;;5062648;27;38196;-78
2022/06/18 09:12:17;;;;;;;7.75;2.83;;;27.90;99.90;;;;;;5032739;28;39412;-77
2022/06/18 09:14:59;;;;;;;4.60;2.13;;;28.30;99.90;;;;;;5041957;28;48926;-78
2022/06/18 09:17:29;;;;;;;5.75;2.10;;;28.40;99.90;;;;;;5049715;28;39546;-77
2022/06/18 09:20:22;;;;;;;7.20;2.40;;;28.70;99.90;;;;;;5053481;27;38042;-77
2022/06/18 09:22:55;;;;;;;4.63;1.90;;;28.80;99.90;;;;;;5042126;28;47333;-77
2022/06/18 09:25:28;;;;;;;6.00;2.67;;;29.00;99.90;;;;;;5078680;27;38921;-78
2022/06/18 09:28:04;;;;;;;7.57;3.03;;;29.20;99.90;;;;;;5098440;27;38347;-78
2022/06/18 09:30:43;;;;;;;6.50;2.53;;;29.10;99.90;;;;;;5066419;28;47208;-78
2022/06/18 09:33:22;;;;;;;8.52;3.28;;;29.30;99.90;;;;;;5094670;27;40495;-77
2022/06/18 09:35:53;;;;;;;4.72;2.35;;;29.30;99.90;;;;;;5065240;28;40257;-77
2022/06/18 09:38:28;;;;;;;7.90;2.70;;;29.30;99.90;;;;;;5047335;28;39167;-77
2022/06/18 09:40:59;;;;;;;10.13;2.85;;;29.20;99.90;;;;;;5059952;28;37504;-77
2022/06/18 09:43:51;;;;;;;6.05;2.50;;;29.20;99.90;;;;;;5040837;28;39286;-78
2022/06/18 09:46:34;;;;;;;6.10;2.30;;;29.40;99.90;;;;;;5047101;28;39387;-78
2022/06/18 09:49:01;;;;;;;8.52;2.70;;;29.60;99.90;;;;;;5037416;28;39671;-78
2022/06/18 09:51:39;;;;;;;10.07;2.67;;;29.90;99.90;;;;;;5045956;28;47377;-77
2022/06/18 09:54:08;;;;;;;10.25;2.90;;;30.00;99.90;;;;;;5060844;27;38813;-77
2022/06/18 09:56:41;;;;;;;12.23;3.60;;;29.70;99.90;;;;;;5057746;27;38082;-77
2022/06/18 09:59:39;;;;;;;9.77;3.42;;;29.60;99.90;;;;;;5064052;27;38481;-77
2022/06/18 10:02:27;;;;;;;7.80;3.20;;;29.60;99.90;;;;;;5061071;28;38873;-77
2022/06/18 10:07:45;;;;;;;12.00;4.20;;;29.90;99.90;;;;;;5048713;28;50443;-78
2022/06/18 10:10:18;;;;;;;10.88;4.05;;;30.00;99.90;;;;;;5043301;28;38607;-78
2022/06/18 10:12:48;;;;;;;8.30;3.78;;;30.30;99.90;;;;;;5044275;28;37879;-77
2022/06/18 10:15:17;;;;;;;7.50;3.20;;;30.40;99.90;;;;;;5042920;28;39228;-77
2022/06/18 10:18:20;;;;;;;5.50;2.97;;;30.30;99.90;;;;;;5043476;28;38911;-77
2022/06/18 10:21:03;;;;;;;8.30;3.63;;;30.40;99.90;;;;;;5063608;27;47348;-77
2022/06/18 10:23:29;;;;;;;9.98;3.13;;;30.30;99.90;;;;;;5057854;28;47109;-78
2022/06/18 10:26:08;;;;;;;7.53;2.45;;;29.90;99.90;;;;;;5070789;28;40103;-77
2022/06/18 10:28:52;;;;;;;5.05;2.40;;;29.90;99.90;;;;;;5066388;27;48572;-77
2022/06/18 10:31:38;;;;;;;8.05;2.85;;;30.40;99.90;;;;;;5053319;27;38974;-78
2022/06/18 10:34:29;;;;;;;9.65;2.53;;;30.60;99.90;;;;;;5062048;27;37402;-77
2022/06/18 10:37:11;;;;;;;8.18;2.78;;;30.30;99.90;;;;;;5065155;28;40159;-78
2022/06/18 10:39:56;;;;;;;9.35;2.95;;;30.60;99.90;;;;;;5059991;28;47422;-78
2022/06/18 10:43:05;;;;;;;11.95;2.60;;;30.60;99.90;;;;;;5044644;28;37958;-78
2022/06/18 10:45:45;;;;;;;6.93;2.75;;;30.40;99.90;;;;;;5057781;28;47058;-78
2022/06/18 10:48:17;;;;;;;6.35;2.40;;;30.40;99.90;;;;;;5062048;27;37829;-78
2022/06/18 10:50:50;;;;;;;5.78;2.20;;;30.60;99.90;;;;;;5064562;28;38319;-78
2022/06/18 10:53:20;;;;;;;7.88;2.55;;;30.80;99.90;;;;;;5056533;27;37859;-78
2022/06/18 10:55:58;;;;;;;8.25;2.28;;;31.10;99.90;;;;;;5079738;28;35237;-78
2022/06/18 10:58:25;;;;;;;6.20;2.13;;;31.30;99.90;;;;;;5058424;28;37327;-79
2022/06/18 11:01:13;;;;;;;5.30;2.28;;;31.30;99.90;;;;;;5092953;27;38715;-78
2022/06/18 11:03:39;;;;;;;6.45;2.30;;;31.50;99.90;;;;;;5057323;27;48568;-78
2022/06/18 11:06:13;;;;;;;8.50;2.53;;;31.60;99.90;;;;;;5084114;28;38021;-78
2022/06/18 11:08:53;;;;;;;8.02;2.70;;;31.50;99.90;;;;;;5037062;28;39177;-78
2022/06/18 11:11:29;;;;;;;5.15;2.33;;;31.20;99.90;;;;;;5046619;28;38925;-78
2022/06/18 11:14:06;;;;;;;8.15;1.90;;;31.20;99.90;;;;;;5039804;28;36808;-78
2022/06/18 11:16:41;;;;;;;5.00;2.33;;;31.40;99.90;;;;;;5062561;28;47014;-78
2022/06/18 11:19:17;;;;;;;7.03;2.50;;;30.90;99.90;;;;;;5061793;27;40768;-78
2022/06/18 11:21:43;;;;;;;9.30;2.53;;;31.20;99.90;;;;;;5060666;27;38230;-79
2022/06/18 11:24:15;;;;;;;8.32;2.30;;;31.30;99.90;;;;;;5055920;27;38422;-78
2022/06/18 11:26:55;;;;;;;7.72;2.45;;;31.50;99.90;;;;;;5060501;28;39040;-78
2022/06/18 11:29:28;;;;;;;10.30;2.67;;;31.40;99.90;;;;;;5064100;27;39727;-77
2022/06/18 11:31:58;;;;;;;7.05;2.47;;;31.40;99.90;;;;;;5067477;28;38589;-77
2022/06/18 11:34:26;;;;;;;8.57;2.30;;;31.50;99.90;;;;;;5093271;27;39668;-77
2022/06/18 11:36:56;;;;;;;5.50;3.08;;;31.50;99.90;;;;;;5058810;28;36752;-77
2022/06/18 11:39:34;;;;;;;4.80;2.30;;;31.30;99.90;;;;;;5074888;27;40744;-78
2022/06/18 11:42:12;;;;;;;7.05;2.53;;;31.70;99.90;;;;;;5062611;28;39897;-78
2022/06/18 11:44:44;;;;;;;5.28;2.45;;;31.80;99.90;;;;;;5066811;28;47246;-78
2022/06/18 11:47:28;;;;;;;9.00;2.97;;;31.90;99.90;;;;;;5062863;27;37203;-78
2022/06/18 11:50:11;;;;;;;7.55;2.90;;;31.60;99.90;;;;;;5063967;28;39324;-78
2022/06/18 11:52:42;;;;;;;5.57;2.60;;;31.50;99.90;;;;;;5063921;28;47120;-78
2022/06/18 11:55:31;;;;;;;6.95;2.80;;;31.60;99.90;;;;;;5041812;28;38101;-77
2022/06/18 11:58:10;;;;;;;6.43;2.63;;;31.70;99.90;;;;;;5051639;28;37918;-77
2022/06/18 12:00:51;;;;;;;7.93;2.53;;;32.00;99.90;;;;;;5060900;28;47307;-77
2022/06/18 12:03:41;;;;;;;9.18;2.70;;;31.90;99.90;;;;;;5073534;28;39294;-78
2022/06/18 12:06:24;;;;;;;9.13;3.25;;;31.90;99.90;;;;;;5050926;28;39756;-77
2022/06/18 12:08:50;;;;;;;9.25;3.20;;;32.00;99.90;;;;;;5043915;28;37795;-77
2022/06/18 12:11:50;;;;;;;9.25;3.65;;;32.00;99.90;;;;;;5059101;28;39438;-76
2022/06/18 12:14:27;;;;;;;5.45;3.33;;;31.90;99.90;;;;;;5047425;28;39441;-75
2022/06/18 12:16:59;;;;;;;7.78;3.10;;;31.70;99.90;;;;;;5046752;28;39205;-76
2022/06/18 12:19:31;;;;;;;8.57;3.30;;;31.40;99.90;;;;;;5044291;28;37912;-76
2022/06/18 12:22:25;;;;;;;8.25;3.55;;;31.70;99.90;;;;;;5045575;28;39297;-77
2022/06/18 12:25:06;;;;;;;8.52;3.30;;;31.50;99.90;;;;;;5057321;28;47543;-77
2022/06/18 12:27:38;;;;;;;9.38;3.85;;;31.60;99.90;;;;;;5064151;28;47232;-76
2022/06/18 12:30:35;;;;;;;11.15;2.90;;;31.50;99.90;;;;;;5092940;27;38874;-77
2022/06/18 12:33:17;;;;;;;9.70;3.35;;;31.60;99.90;;;;;;5054169;28;38484;-76
2022/06/18 12:35:59;;;;;;;6.97;3.17;;;31.80;99.90;;;;;;5065369;28;47088;-76
2022/06/18 12:38:37;;;;;;;10.15;3.60;;;31.70;99.90;;;;;;5066922;28;36954;-76
2022/06/18 12:41:41;;;;;;;11.27;3.83;;;31.50;99.90;;;;;;5046760;28;38222;-76
2022/06/18 12:44:16;;;;;;;12.40;4.28;;;31.60;99.90;;;;;;5041541;28;37790;-76
2022/06/18 12:47:00;;;;;;;8.30;3.20;;;31.60;99.90;;;;;;5045989;28;38729;-76
2022/06/18 12:50:31;;;;;;;5.55;2.50;;;31.90;99.90;;;;;;5060117;28;38801;-76
2022/06/18 12:53:18;;;;;;;10.00;3.10;;;32.00;99.90;;;;;;4983490;28;47259;-76
2022/06/18 12:55:56;;;;;;;8.18;2.70;;;31.80;99.90;;;;;;5078311;28;47283;-76
2022/06/18 12:58:31;;;;;;;9.43;2.97;;;31.70;99.90;;;;;;5062727;27;39397;-77
2022/06/18 13:01:05;;;;;;;8.98;2.63;;;31.50;99.90;;;;;;5044173;28;38230;-76
2022/06/18 13:04:07;;;;;;;5.97;2.60;;;31.40;99.90;;;;;;5060016;27;48756;-77
2022/06/18 13:06:57;;;;;;;6.05;2.33;;;31.20;99.90;;;;;;5057197;28;47178;-76
2022/06/18 13:09:52;;;;;;;10.13;2.65;;;30.70;99.90;;;;;;5039334;28;38130;-77
2022/06/18 13:12:28;;;;;;;3.42;1.88;;;30.80;99.90;;;;;;5048346;28;39532;-77
2022/06/18 13:15:16;;;;;;;7.60;2.13;;;30.90;99.90;;;;;;5046670;28;38336;-77
2022/06/18 13:17:47;;;;;;;6.97;2.00;;;31.00;99.90;;;;;;5064498;28;48368;-77
2022/06/18 13:20:25;;;;;;;7.65;1.65;;;31.20;99.90;;;;;;5067898;27;39446;-77
2022/06/18 13:22:51;;;;;;;6.60;2.17;;;30.80;99.90;;;;;;5043612;28;39687;-77